sensor_id;sensor_type;location;lat;lon;timestamp;temperature;humidity
31455;DHT22;18084;53.028;8.834;2023-04-03T00:02:15;1.60;95.40
31455;DHT22;18084;53.028;8.834;2023-04-03T00:04:40;1.60;97.50
31455;DHT22;18084;53.028;8.834;2023-04-03T00:07:06;1.60;99.40
31455;DHT22;18084;53.028;8.834;2023-04-03T00:09:31;1.50;99.70
31455;DHT22;18084;53.028;8.834;2023-04-03T00:11:57;1.50;98.20
31455;DHT22;18084;53.028;8.834;2023-04-03T00:14:22;1.40;99.40
31455;DHT22;18084;53.028;8.834;2023-04-03T00:16:48;1.30;99.10
31455;DHT22;18084;53.028;8.834;2023-04-03T00:19:13;1.20;99.90
31455;DHT22;18084;53.028;8.834;2023-04-03T00:21:39;1.10;99.90
31455;DHT22;18084;53.028;8.834;2023-04-03T00:24:05;1.10;99.90
31455;DHT22;18084;53.028;8.834;2023-04-03T00:26:31;1.10;99.90
31455;DHT22;18084;53.028;8.834;2023-04-03T00:28:56;1.10;99.90
31455;DHT22;18084;53.028;8.834;2023-04-03T00:31:22;1.00;99.90
31455;DHT22;18084;53.028;8.834;2023-04-03T00:33:48;1.00;99.90
31455;DHT22;18084;53.028;8.834;2023-04-03T00:36:13;0.90;99.90
31455;DHT22;18084;53.028;8.834;2023-04-03T00:38:39;0.90;99.90
31455;DHT22;18084;53.028;8.834;2023-04-03T00:41:05;0.90;99.90
31455;DHT22;18084;53.028;8.834;2023-04-03T00:43:31;1.00;99.90
31455;DHT22;18084;53.028;8.834;2023-04-03T00:45:58;1.10;99.90
31455;DHT22;18084;53.028;8.834;2023-04-03T00:48:34;1.10;99.90
31455;DHT22;18084;53.028;8.834;2023-04-03T00:51:01;1.10;99.90
31455;DHT22;18084;53.028;8.834;2023-04-03T00:53:37;1.10;99.90
31455;DHT22;18084;53.028;8.834;2023-04-03T00:56:08;1.10;99.90
31455;DHT22;18084;53.028;8.834;2023-04-03T00:58:42;0.90;99.90
31455;DHT22;18084;53.028;8.834;2023-04-03T01:01:14;0.90;99.90
31455;DHT22;18084;53.028;8.834;2023-04-03T01:03:41;0.80;99.90
31455;DHT22;18084;53.028;8.834;2023-04-03T01:06:06;0.80;99.90
31455;DHT22;18084;53.028;8.834;2023-04-03T01:08:32;0.80;99.90
31455;DHT22;18084;53.028;8.834;2023-04-03T01:10:58;0.70;99.90
31455;DHT22;18084;53.028;8.834;2023-04-03T01:13:27;0.70;99.90
31455;DHT22;18084;53.028;8.834;2023-04-03T01:15:54;0.60;99.90
31455;DHT22;18084;53.028;8.834;2023-04-03T01:18:20;0.70;99.90
31455;DHT22;18084;53.028;8.834;2023-04-03T01:23:30;0.60;99.90
31455;DHT22;18084;53.028;8.834;2023-04-03T01:25:58;0.60;99.90
31455;DHT22;18084;53.028;8.834;2023-04-03T01:28:26;0.60;99.90
31455;DHT22;18084;53.028;8.834;2023-04-03T01:34:14;0.80;99.90
31455;DHT22;18084;53.028;8.834;2023-04-03T01:36:40;0.80;99.90
31455;DHT22;18084;53.028;8.834;2023-04-03T01:39:06;0.90;99.90
31455;DHT22;18084;53.028;8.834;2023-04-03T01:41:32;1.00;99.90
31455;DHT22;18084;53.028;8.834;2023-04-03T01:43:57;0.90;99.90
31455;DHT22;18084;53.028;8.834;2023-04-03T01:46:23;0.90;99.90
31455;DHT22;18084;53.028;8.834;2023-04-03T01:48:48;0.90;99.90
31455;DHT22;18084;53.028;8.834;2023-04-03T01:51:14;0.90;99.90
31455;DHT22;18084;53.028;8.834;2023-04-03T01:53:40;1.40;99.90
31455;DHT22;18084;53.028;8.834;2023-04-03T01:56:06;0.90;99.90
31455;DHT22;18084;53.028;8.834;2023-04-03T01:58:32;0.90;99.90
31455;DHT22;18084;53.028;8.834;2023-04-03T02:00:57;0.80;99.90
31455;DHT22;18084;53.028;8.834;2023-04-03T02:03:23;0.90;99.90
31455;DHT22;18084;53.028;8.834;2023-04-03T02:05:49;0.80;99.90
31455;DHT22;18084;53.028;8.834;2023-04-03T02:08:14;0.90;99.90
31455;DHT22;18084;53.028;8.834;2023-04-03T02:10:43;0.80;99.90
31455;DHT22;18084;53.028;8.834;2023-04-03T02:13:09;0.80;99.90
31455;DHT22;18084;53.028;8.834;2023-04-03T02:15:38;0.70;99.90
31455;DHT22;18084;53.028;8.834;2023-04-03T02:18:03;0.60;99.90
31455;DHT22;18084;53.028;8.834;2023-04-03T02:20:29;0.60;99.90
31455;DHT22;18084;53.028;8.834;2023-04-03T02:22:55;0.60;99.90
31455;DHT22;18084;53.028;8.834;2023-04-03T02:25:21;0.60;99.90
31455;DHT22;18084;53.028;8.834;2023-04-03T02:27:47;0.50;99.90
31455;DHT22;18084;53.028;8.834;2023-04-03T02:30:13;0.50;99.90
31455;DHT22;18084;53.028;8.834;2023-04-03T02:32:40;0.40;99.90
31455;DHT22;18084;53.028;8.834;2023-04-03T02:35:06;0.40;99.90
31455;DHT22;18084;53.028;8.834;2023-04-03T02:37:32;0.40;99.90
31455;DHT22;18084;53.028;8.834;2023-04-03T02:39:58;1.80;99.90
31455;DHT22;18084;53.028;8.834;2023-04-03T02:42:24;0.40;99.90
31455;DHT22;18084;53.028;8.834;2023-04-03T02:44:49;0.40;99.90
31455;DHT22;18084;53.028;8.834;2023-04-03T02:47:15;0.40;99.90
31455;DHT22;18084;53.028;8.834;2023-04-03T02:49:41;0.40;99.90
31455;DHT22;18084;53.028;8.834;2023-04-03T02:52:08;0.30;99.90
31455;DHT22;18084;53.028;8.834;2023-04-03T02:54:34;0.40;99.90
31455;DHT22;18084;53.028;8.834;2023-04-03T02:57:00;0.40;99.90
31455;DHT22;18084;53.028;8.834;2023-04-03T02:59:26;0.30;99.90
31455;DHT22;18084;53.028;8.834;2023-04-03T03:01:51;0.30;99.90
31455;DHT22;18084;53.028;8.834;2023-04-03T03:04:17;0.30;99.90
31455;DHT22;18084;53.028;8.834;2023-04-03T03:06:43;0.40;99.90
31455;DHT22;18084;53.028;8.834;2023-04-03T03:09:08;0.20;99.90
31455;DHT22;18084;53.028;8.834;2023-04-03T03:11:34;0.20;99.90
31455;DHT22;18084;53.028;8.834;2023-04-03T03:14:00;0.10;99.90
31455;DHT22;18084;53.028;8.834;2023-04-03T03:16:25;0.20;99.90
31455;DHT22;18084;53.028;8.834;2023-04-03T03:18:51;0.10;99.90
31455;DHT22;18084;53.028;8.834;2023-04-03T03:21:16;0.10;99.90
31455;DHT22;18084;53.028;8.834;2023-04-03T03:23:42;0.00;99.90
31455;DHT22;18084;53.028;8.834;2023-04-03T03:26:10;0.00;99.90
31455;DHT22;18084;53.028;8.834;2023-04-03T03:28:37;0.00;99.90
31455;DHT22;18084;53.028;8.834;2023-04-03T03:31:03;0.10;99.90
31455;DHT22;18084;53.028;8.834;2023-04-03T03:33:29;0.10;99.90
31455;DHT22;18084;53.028;8.834;2023-04-03T03:35:55;0.10;99.90
31455;DHT22;18084;53.028;8.834;2023-04-03T03:38:21;0.10;99.90
31455;DHT22;18084;53.028;8.834;2023-04-03T03:40:48;0.10;99.90
31455;DHT22;18084;53.028;8.834;2023-04-03T03:43:14;0.00;99.90
31455;DHT22;18084;53.028;8.834;2023-04-03T03:45:40;0.00;99.90
31455;DHT22;18084;53.028;8.834;2023-04-03T03:48:05;0.00;99.90
31455;DHT22;18084;53.028;8.834;2023-04-03T03:50:31;0.00;99.90
31455;DHT22;18084;53.028;8.834;2023-04-03T03:52:56;-0.10;99.90
31455;DHT22;18084;53.028;8.834;2023-04-03T03:55:22;-0.10;99.90
31455;DHT22;18084;53.028;8.834;2023-04-03T03:57:47;0.00;99.90
31455;DHT22;18084;53.028;8.834;2023-04-03T04:00:14;0.00;99.90
31455;DHT22;18084;53.028;8.834;2023-04-03T04:02:40;0.00;99.90
31455;DHT22;18084;53.028;8.834;2023-04-03T04:05:06;0.00;99.90
31455;DHT22;18084;53.028;8.834;2023-04-03T04:07:31;0.00;99.90
31455;DHT22;18084;53.028;8.834;2023-04-03T04:09:57;0.00;99.90
31455;DHT22;18084;53.028;8.834;2023-04-03T04:12:22;-0.10;99.90
31455;DHT22;18084;53.028;8.834;2023-04-03T04:14:48;0.00;99.90
31455;DHT22;18084;53.028;8.834;2023-04-03T04:17:14;0.00;99.90
31455;DHT22;18084;53.028;8.834;2023-04-03T04:19:39;-0.10;99.90
31455;DHT22;18084;53.028;8.834;2023-04-03T04:22:05;-0.10;99.90
31455;DHT22;18084;53.028;8.834;2023-04-03T04:24:31;-0.10;99.90
31455;DHT22;18084;53.028;8.834;2023-04-03T04:26:56;-0.20;99.90
31455;DHT22;18084;53.028;8.834;2023-04-03T04:29:22;-0.10;99.90
31455;DHT22;18084;53.028;8.834;2023-04-03T04:31:48;-0.10;99.90
31455;DHT22;18084;53.028;8.834;2023-04-03T04:34:14;-0.10;99.90
31455;DHT22;18084;53.028;8.834;2023-04-03T04:36:40;0.00;99.90
31455;DHT22;18084;53.028;8.834;2023-04-03T04:39:05;0.00;99.90
31455;DHT22;18084;53.028;8.834;2023-04-03T04:41:31;0.00;99.90
31455;DHT22;18084;53.028;8.834;2023-04-03T04:43:57;0.00;99.90
31455;DHT22;18084;53.028;8.834;2023-04-03T04:46:23;0.00;99.90
31455;DHT22;18084;53.028;8.834;2023-04-03T04:48:52;0.00;99.90
31455;DHT22;18084;53.028;8.834;2023-04-03T04:51:18;0.00;99.90
31455;DHT22;18084;53.028;8.834;2023-04-03T04:53:43;0.00;99.90
31455;DHT22;18084;53.028;8.834;2023-04-03T04:56:09;0.00;99.90
31455;DHT22;18084;53.028;8.834;2023-04-03T04:58:35;0.00;99.90
31455;DHT22;18084;53.028;8.834;2023-04-03T05:01:05;0.00;99.90
31455;DHT22;18084;53.028;8.834;2023-04-03T05:03:35;0.00;99.90
31455;DHT22;18084;53.028;8.834;2023-04-03T05:06:01;0.00;99.90
31455;DHT22;18084;53.028;8.834;2023-04-03T05:08:27;0.00;99.90
31455;DHT22;18084;53.028;8.834;2023-04-03T05:10:52;0.10;99.90
31455;DHT22;18084;53.028;8.834;2023-04-03T05:13:19;0.10;99.90
31455;DHT22;18084;53.028;8.834;2023-04-03T05:15:45;0.10;99.90
31455;DHT22;18084;53.028;8.834;2023-04-03T05:18:11;0.10;99.90
31455;DHT22;18084;53.028;8.834;2023-04-03T05:20:36;0.10;99.90
31455;DHT22;18084;53.028;8.834;2023-04-03T05:23:02;0.20;99.90
31455;DHT22;18084;53.028;8.834;2023-04-03T05:25:28;0.20;99.90
31455;DHT22;18084;53.028;8.834;2023-04-03T05:27:55;0.30;99.90
31455;DHT22;18084;53.028;8.834;2023-04-03T05:30:21;0.40;99.90
31455;DHT22;18084;53.028;8.834;2023-04-03T05:32:46;0.50;99.90
31455;DHT22;18084;53.028;8.834;2023-04-03T05:35:12;0.60;99.90
31455;DHT22;18084;53.028;8.834;2023-04-03T05:37:38;0.70;99.90
31455;DHT22;18084;53.028;8.834;2023-04-03T05:40:05;0.90;99.90
31455;DHT22;18084;53.028;8.834;2023-04-03T05:42:31;1.20;98.20
31455;DHT22;18084;53.028;8.834;2023-04-03T05:44:56;1.40;91.50
31455;DHT22;18084;53.028;8.834;2023-04-03T05:47:22;1.60;82.10
31455;DHT22;18084;53.028;8.834;2023-04-03T05:49:47;1.80;79.20
31455;DHT22;18084;53.028;8.834;2023-04-03T05:52:23;2.00;67.90
31455;DHT22;18084;53.028;8.834;2023-04-03T05:54:51;2.20;56.60
31455;DHT22;18084;53.028;8.834;2023-04-03T05:57:16;2.40;46.20
31455;DHT22;18084;53.028;8.834;2023-04-03T05:59:45;2.60;42.00
31455;DHT22;18084;53.028;8.834;2023-04-03T06:02:13;2.80;30.30
31455;DHT22;18084;53.028;8.834;2023-04-03T06:04:39;3.10;28.80
31455;DHT22;18084;53.028;8.834;2023-04-03T06:07:04;3.30;16.50
31455;DHT22;18084;53.028;8.834;2023-04-03T06:09:30;3.40;2.40
31455;DHT22;18084;53.028;8.834;2023-04-03T06:11:56;3.60;1.00
31455;DHT22;18084;53.028;8.834;2023-04-03T06:14:24;3.70;1.00
31455;DHT22;18084;53.028;8.834;2023-04-03T06:16:50;3.90;1.00
31455;DHT22;18084;53.028;8.834;2023-04-03T06:19:15;4.00;1.00
31455;DHT22;18084;53.028;8.834;2023-04-03T06:21:41;4.10;1.00
31455;DHT22;18084;53.028;8.834;2023-04-03T06:24:07;4.30;1.00
31455;DHT22;18084;53.028;8.834;2023-04-03T06:26:33;4.50;1.00
31455;DHT22;18084;53.028;8.834;2023-04-03T06:28:59;4.60;1.00
31455;DHT22;18084;53.028;8.834;2023-04-03T06:31:25;4.90;1.00
31455;DHT22;18084;53.028;8.834;2023-04-03T06:33:51;5.10;1.00
31455;DHT22;18084;53.028;8.834;2023-04-03T06:36:17;5.30;99.90
31455;DHT22;18084;53.028;8.834;2023-04-03T06:38:46;5.30;99.90
31455;DHT22;18084;53.028;8.834;2023-04-03T06:41:11;5.30;99.90
31455;DHT22;18084;53.028;8.834;2023-04-03T06:43:37;5.60;99.90
31455;DHT22;18084;53.028;8.834;2023-04-03T06:46:02;5.80;99.90
31455;DHT22;18084;53.028;8.834;2023-04-03T06:48:28;5.80;99.90
31455;DHT22;18084;53.028;8.834;2023-04-03T06:50:53;6.10;99.90
31455;DHT22;18084;53.028;8.834;2023-04-03T06:53:19;6.40;99.90
31455;DHT22;18084;53.028;8.834;2023-04-03T06:55:44;6.70;99.90
31455;DHT22;18084;53.028;8.834;2023-04-03T06:58:10;6.90;34.90
31455;DHT22;18084;53.028;8.834;2023-04-03T07:00:35;7.30;99.90
31455;DHT22;18084;53.028;8.834;2023-04-03T07:03:01;7.20;99.90
31455;DHT22;18084;53.028;8.834;2023-04-03T07:05:27;7.40;24.80
31455;DHT22;18084;53.028;8.834;2023-04-03T07:07:54;7.40;99.90
31455;DHT22;18084;53.028;8.834;2023-04-03T07:10:20;7.50;99.90
31455;DHT22;18084;53.028;8.834;2023-04-03T07:12:45;7.50;10.50
31455;DHT22;18084;53.028;8.834;2023-04-03T07:15:11;7.90;99.90
31455;DHT22;18084;53.028;8.834;2023-04-03T07:17:38;8.40;84.80
31455;DHT22;18084;53.028;8.834;2023-04-03T07:20:04;8.70;99.90
31455;DHT22;18084;53.028;8.834;2023-04-03T07:22:30;8.90;1.00
31455;DHT22;18084;53.028;8.834;2023-04-03T07:24:55;9.10;99.90
31455;DHT22;18084;53.028;8.834;2023-04-03T07:27:21;9.40;99.90
31455;DHT22;18084;53.028;8.834;2023-04-03T07:29:46;9.70;1.00
31455;DHT22;18084;53.028;8.834;2023-04-03T07:32:14;10.00;50.30
31455;DHT22;18084;53.028;8.834;2023-04-03T07:34:40;10.60;1.00
31455;DHT22;18084;53.028;8.834;2023-04-03T07:37:05;10.60;88.40
31455;DHT22;18084;53.028;8.834;2023-04-03T07:39:32;10.50;1.00
31455;DHT22;18084;53.028;8.834;2023-04-03T07:42:00;10.10;92.30
31455;DHT22;18084;53.028;8.834;2023-04-03T07:44:27;10.40;1.50
31455;DHT22;18084;53.028;8.834;2023-04-03T07:46:52;10.60;1.00
31455;DHT22;18084;53.028;8.834;2023-04-03T07:49:18;10.70;99.90
31455;DHT22;18084;53.028;8.834;2023-04-03T07:51:44;10.80;99.90
31455;DHT22;18084;53.028;8.834;2023-04-03T07:54:10;11.10;99.90
31455;DHT22;18084;53.028;8.834;2023-04-03T07:56:35;10.80;99.90
31455;DHT22;18084;53.028;8.834;2023-04-03T07:59:01;11.10;99.90
31455;DHT22;18084;53.028;8.834;2023-04-03T08:01:27;10.70;99.90
31455;DHT22;18084;53.028;8.834;2023-04-03T08:03:53;10.40;99.90
31455;DHT22;18084;53.028;8.834;2023-04-03T08:06:18;10.50;99.90
31455;DHT22;18084;53.028;8.834;2023-04-03T08:08:43;11.10;99.90
31455;DHT22;18084;53.028;8.834;2023-04-03T08:11:09;11.30;78.00
31455;DHT22;18084;53.028;8.834;2023-04-03T08:13:39;11.50;1.00
31455;DHT22;18084;53.028;8.834;2023-04-03T08:16:09;11.80;1.00
31455;DHT22;18084;53.028;8.834;2023-04-03T08:18:34;11.80;1.00
31455;DHT22;18084;53.028;8.834;2023-04-03T08:21:00;11.80;1.00
31455;DHT22;18084;53.028;8.834;2023-04-03T08:23:25;11.30;1.00
31455;DHT22;18084;53.028;8.834;2023-04-03T08:25:51;11.40;1.00
31455;DHT22;18084;53.028;8.834;2023-04-03T08:28:17;11.40;1.00
31455;DHT22;18084;53.028;8.834;2023-04-03T08:30:42;11.20;1.00
31455;DHT22;18084;53.028;8.834;2023-04-03T08:33:09;11.60;1.00
31455;DHT22;18084;53.028;8.834;2023-04-03T08:35:41;12.60;1.00
31455;DHT22;18084;53.028;8.834;2023-04-03T08:38:07;12.80;99.90
31455;DHT22;18084;53.028;8.834;2023-04-03T08:40:33;12.80;99.90
31455;DHT22;18084;53.028;8.834;2023-04-03T08:43:57;13.40;99.90
31455;DHT22;18084;53.028;8.834;2023-04-03T08:46:05;13.40;99.90
31455;DHT22;18084;53.028;8.834;2023-04-03T08:48:35;13.80;99.90
31455;DHT22;18084;53.028;8.834;2023-04-03T08:51:08;14.10;99.90
31455;DHT22;18084;53.028;8.834;2023-04-03T08:53:41;13.80;99.90
31455;DHT22;18084;53.028;8.834;2023-04-03T08:56:10;14.00;99.90
31455;DHT22;18084;53.028;8.834;2023-04-03T08:59:03;13.60;99.90
31455;DHT22;18084;53.028;8.834;2023-04-03T09:01:34;13.40;99.90
31455;DHT22;18084;53.028;8.834;2023-04-03T09:04:01;13.50;99.90
31455;DHT22;18084;53.028;8.834;2023-04-03T09:06:31;13.00;99.90
31455;DHT22;18084;53.028;8.834;2023-04-03T09:17:41;12.90;99.90
31455;DHT22;18084;53.028;8.834;2023-04-03T09:20:24;12.80;99.90
31455;DHT22;18084;53.028;8.834;2023-04-03T09:22:52;12.90;99.90
31455;DHT22;18084;53.028;8.834;2023-04-03T09:25:37;12.70;99.90
31455;DHT22;18084;53.028;8.834;2023-04-03T09:28:04;12.60;99.90
31455;DHT22;18084;53.028;8.834;2023-04-03T09:30:36;12.20;99.90
31455;DHT22;18084;53.028;8.834;2023-04-03T09:33:04;12.30;99.90
31455;DHT22;18084;53.028;8.834;2023-04-03T09:35:36;13.00;99.90
31455;DHT22;18084;53.028;8.834;2023-04-03T09:40:38;12.50;99.90
31455;DHT22;18084;53.028;8.834;2023-04-03T09:45:43;12.70;99.90
31455;DHT22;18084;53.028;8.834;2023-04-03T09:50:38;11.80;99.90
31455;DHT22;18084;53.028;8.834;2023-04-03T09:53:04;11.80;99.90
31455;DHT22;18084;53.028;8.834;2023-04-03T09:55:30;11.70;99.90
31455;DHT22;18084;53.028;8.834;2023-04-03T09:58:03;11.90;99.90
31455;DHT22;18084;53.028;8.834;2023-04-03T10:00:37;12.20;99.90
31455;DHT22;18084;53.028;8.834;2023-04-03T10:03:05;11.90;99.90
31455;DHT22;18084;53.028;8.834;2023-04-03T10:05:39;11.80;99.90
31455;DHT22;18084;53.028;8.834;2023-04-03T10:10:45;11.10;99.90
31455;DHT22;18084;53.028;8.834;2023-04-03T10:13:14;11.40;99.90
31455;DHT22;18084;53.028;8.834;2023-04-03T10:15:50;11.30;99.90
31455;DHT22;18084;53.028;8.834;2023-04-03T10:21:10;11.10;99.90
31455;DHT22;18084;53.028;8.834;2023-04-03T10:23:45;11.00;99.90
31455;DHT22;18084;53.028;8.834;2023-04-03T10:28:41;10.60;99.90
31455;DHT22;18084;53.028;8.834;2023-04-03T10:34:24;10.60;99.90
31455;DHT22;18084;53.028;8.834;2023-04-03T10:40:04;10.80;99.90
31455;DHT22;18084;53.028;8.834;2023-04-03T10:53:01;10.50;99.90
31455;DHT22;18084;53.028;8.834;2023-04-03T10:58:36;10.80;99.90
31455;DHT22;18084;53.028;8.834;2023-04-03T11:01:26;10.90;99.90
31455;DHT22;18084;53.028;8.834;2023-04-03T11:03:58;10.80;99.90
31455;DHT22;18084;53.028;8.834;2023-04-03T11:06:28;10.80;99.90
31455;DHT22;18084;53.028;8.834;2023-04-03T11:09:01;10.60;99.90
31455;DHT22;18084;53.028;8.834;2023-04-03T11:11:38;10.50;99.90
31455;DHT22;18084;53.028;8.834;2023-04-03T11:14:18;10.80;99.90
31455;DHT22;18084;53.028;8.834;2023-04-03T11:17:40;10.80;99.90
31455;DHT22;18084;53.028;8.834;2023-04-03T11:24:58;10.20;99.90
31455;DHT22;18084;53.028;8.834;2023-04-03T11:27:25;9.80;99.90
31455;DHT22;18084;53.028;8.834;2023-04-03T11:29:53;10.30;99.90
31455;DHT22;18084;53.028;8.834;2023-04-03T11:33:04;10.30;99.90
31455;DHT22;18084;53.028;8.834;2023-04-03T11:35:34;10.50;99.90
31455;DHT22;18084;53.028;8.834;2023-04-03T11:38:02;10.10;99.90
31455;DHT22;18084;53.028;8.834;2023-04-03T11:40:35;10.40;99.90
31455;DHT22;18084;53.028;8.834;2023-04-03T11:43:07;10.60;99.90
31455;DHT22;18084;53.028;8.834;2023-04-03T11:50:57;11.40;99.90
31455;DHT22;18084;53.028;8.834;2023-04-03T11:53:32;11.40;99.90
31455;DHT22;18084;53.028;8.834;2023-04-03T11:55:59;11.70;99.90
31455;DHT22;18084;53.028;8.834;2023-04-03T11:58:35;11.60;99.90
31455;DHT22;18084;53.028;8.834;2023-04-03T12:03:57;11.40;99.90
31455;DHT22;18084;53.028;8.834;2023-04-03T12:08:58;10.80;99.90
31455;DHT22;18084;53.028;8.834;2023-04-03T12:11:25;11.00;99.90
31455;DHT22;18084;53.028;8.834;2023-04-03T12:24:04;11.10;99.90
31455;DHT22;18084;53.028;8.834;2023-04-03T12:26:51;10.60;99.90
31455;DHT22;18084;53.028;8.834;2023-04-03T12:41:04;9.10;99.90
31455;DHT22;18084;53.028;8.834;2023-04-03T12:44:08;9.30;99.90
31455;DHT22;18084;53.028;8.834;2023-04-03T12:46:38;10.00;99.90
31455;DHT22;18084;53.028;8.834;2023-04-03T12:49:36;10.30;99.90
31455;DHT22;18084;53.028;8.834;2023-04-03T12:52:04;10.60;99.90
31455;DHT22;18084;53.028;8.834;2023-04-03T12:54:38;10.50;99.90
31455;DHT22;18084;53.028;8.834;2023-04-03T12:57:21;10.60;99.90
31455;DHT22;18084;53.028;8.834;2023-04-03T12:59:56;10.90;99.90
31455;DHT22;18084;53.028;8.834;2023-04-03T13:02:29;10.40;99.90
31455;DHT22;18084;53.028;8.834;2023-04-03T13:05:08;10.60;99.90
31455;DHT22;18084;53.028;8.834;2023-04-03T13:07:38;11.20;99.90
31455;DHT22;18084;53.028;8.834;2023-04-03T13:10:13;11.00;99.90
31455;DHT22;18084;53.028;8.834;2023-04-03T13:12:51;11.40;99.90
31455;DHT22;18084;53.028;8.834;2023-04-03T13:15:30;11.00;99.90
31455;DHT22;18084;53.028;8.834;2023-04-03T13:18:04;10.60;99.90
31455;DHT22;18084;53.028;8.834;2023-04-03T13:20:33;10.40;99.90
31455;DHT22;18084;53.028;8.834;2023-04-03T13:23:05;11.70;99.90
31455;DHT22;18084;53.028;8.834;2023-04-03T13:25:35;10.10;99.90
31455;DHT22;18084;53.028;8.834;2023-04-03T13:28:04;9.70;99.90
31455;DHT22;18084;53.028;8.834;2023-04-03T13:30:32;9.60;99.90
31455;DHT22;18084;53.028;8.834;2023-04-03T13:33:02;9.70;99.90
31455;DHT22;18084;53.028;8.834;2023-04-03T13:35:37;10.00;99.90
31455;DHT22;18084;53.028;8.834;2023-04-03T13:38:23;10.10;99.90
31455;DHT22;18084;53.028;8.834;2023-04-03T13:40:52;10.30;99.90
31455;DHT22;18084;53.028;8.834;2023-04-03T13:43:25;10.40;99.90
31455;DHT22;18084;53.028;8.834;2023-04-03T13:46:20;10.30;99.90
31455;DHT22;18084;53.028;8.834;2023-04-03T13:48:48;10.50;99.90
31455;DHT22;18084;53.028;8.834;2023-04-03T13:53:59;10.80;99.90
31455;DHT22;18084;53.028;8.834;2023-04-03T13:56:34;10.70;99.90
31455;DHT22;18084;53.028;8.834;2023-04-03T13:59:21;10.50;99.90
31455;DHT22;18084;53.028;8.834;2023-04-03T14:04:24;10.40;99.90
31455;DHT22;18084;53.028;8.834;2023-04-03T14:06:51;10.70;99.90
31455;DHT22;18084;53.028;8.834;2023-04-03T14:09:17;10.60;99.90
31455;DHT22;18084;53.028;8.834;2023-04-03T14:11:44;10.20;99.90
31455;DHT22;18084;53.028;8.834;2023-04-03T14:14:21;9.60;99.90
31455;DHT22;18084;53.028;8.834;2023-04-03T14:16:52;9.70;99.90
31455;DHT22;18084;53.028;8.834;2023-04-03T14:19:24;9.80;99.90
31455;DHT22;18084;53.028;8.834;2023-04-03T14:21:52;10.10;99.90
31455;DHT22;18084;53.028;8.834;2023-04-03T14:24:18;9.80;99.90
31455;DHT22;18084;53.028;8.834;2023-04-03T14:26:44;10.10;99.90
31455;DHT22;18084;53.028;8.834;2023-04-03T14:29:11;10.30;99.90
31455;DHT22;18084;53.028;8.834;2023-04-03T14:31:37;10.20;99.90
31455;DHT22;18084;53.028;8.834;2023-04-03T14:34:03;10.20;99.90
31455;DHT22;18084;53.028;8.834;2023-04-03T14:36:29;10.10;99.90
31455;DHT22;18084;53.028;8.834;2023-04-03T14:38:56;10.10;99.90
31455;DHT22;18084;53.028;8.834;2023-04-03T14:41:24;10.10;99.90
31455;DHT22;18084;53.028;8.834;2023-04-03T14:43:50;10.20;99.90
31455;DHT22;18084;53.028;8.834;2023-04-03T14:46:24;10.30;99.90
31455;DHT22;18084;53.028;8.834;2023-04-03T14:48:51;10.30;99.90
31455;DHT22;18084;53.028;8.834;2023-04-03T14:51:17;10.40;99.90
31455;DHT22;18084;53.028;8.834;2023-04-03T14:53:43;10.30;99.90
31455;DHT22;18084;53.028;8.834;2023-04-03T14:56:17;10.10;99.90
31455;DHT22;18084;53.028;8.834;2023-04-03T14:58:44;10.10;99.90
31455;DHT22;18084;53.028;8.834;2023-04-03T15:01:14;9.80;99.90
31455;DHT22;18084;53.028;8.834;2023-04-03T15:03:40;10.10;99.90
31455;DHT22;18084;53.028;8.834;2023-04-03T15:06:05;10.40;99.90
31455;DHT22;18084;53.028;8.834;2023-04-03T15:08:31;10.50;99.90
31455;DHT22;18084;53.028;8.834;2023-04-03T15:10:57;10.90;99.90
31455;DHT22;18084;53.028;8.834;2023-04-03T15:13:24;10.50;99.90
31455;DHT22;18084;53.028;8.834;2023-04-03T15:15:51;10.70;99.90
31455;DHT22;18084;53.028;8.834;2023-04-03T15:18:20;10.60;99.90
31455;DHT22;18084;53.028;8.834;2023-04-03T15:20:46;10.50;99.90
31455;DHT22;18084;53.028;8.834;2023-04-03T15:23:13;10.20;99.90
31455;DHT22;18084;53.028;8.834;2023-04-03T15:25:42;10.20;99.90
31455;DHT22;18084;53.028;8.834;2023-04-03T15:28:13;10.00;99.90
31455;DHT22;18084;53.028;8.834;2023-04-03T15:30:44;10.10;99.90
31455;DHT22;18084;53.028;8.834;2023-04-03T15:33:09;10.20;99.90
31455;DHT22;18084;53.028;8.834;2023-04-03T15:35:35;10.20;99.90
31455;DHT22;18084;53.028;8.834;2023-04-03T15:38:00;10.10;99.90
31455;DHT22;18084;53.028;8.834;2023-04-03T15:40:26;9.80;99.90
31455;DHT22;18084;53.028;8.834;2023-04-03T15:42:51;9.80;99.90
31455;DHT22;18084;53.028;8.834;2023-04-03T15:45:16;9.60;99.90
31455;DHT22;18084;53.028;8.834;2023-04-03T15:47:45;9.40;99.90
31455;DHT22;18084;53.028;8.834;2023-04-03T15:50:11;9.30;99.90
31455;DHT22;18084;53.028;8.834;2023-04-03T15:52:36;9.20;99.90
31455;DHT22;18084;53.028;8.834;2023-04-03T15:55:03;9.30;99.90
31455;DHT22;18084;53.028;8.834;2023-04-03T15:57:28;9.30;99.90
31455;DHT22;18084;53.028;8.834;2023-04-03T15:59:54;9.40;99.90
31455;DHT22;18084;53.028;8.834;2023-04-03T16:02:19;9.60;99.90
31455;DHT22;18084;53.028;8.834;2023-04-03T16:04:45;9.60;99.90
31455;DHT22;18084;53.028;8.834;2023-04-03T16:07:10;9.70;99.90
31455;DHT22;18084;53.028;8.834;2023-04-03T16:09:36;9.60;99.90
31455;DHT22;18084;53.028;8.834;2023-04-03T16:12:03;9.60;99.90
31455;DHT22;18084;53.028;8.834;2023-04-03T16:14:29;9.10;99.90
31455;DHT22;18084;53.028;8.834;2023-04-03T16:16:56;9.10;99.90
31455;DHT22;18084;53.028;8.834;2023-04-03T16:19:22;9.00;99.90
31455;DHT22;18084;53.028;8.834;2023-04-03T16:21:48;9.10;99.90
31455;DHT22;18084;53.028;8.834;2023-04-03T16:24:14;8.90;99.90
31455;DHT22;18084;53.028;8.834;2023-04-03T16:26:39;8.90;99.90
31455;DHT22;18084;53.028;8.834;2023-04-03T16:29:05;8.80;99.90
31455;DHT22;18084;53.028;8.834;2023-04-03T16:31:31;9.10;99.90
31455;DHT22;18084;53.028;8.834;2023-04-03T16:33:57;9.00;99.90
31455;DHT22;18084;53.028;8.834;2023-04-03T16:36:23;9.00;99.90
31455;DHT22;18084;53.028;8.834;2023-04-03T16:38:49;9.10;99.90
31455;DHT22;18084;53.028;8.834;2023-04-03T16:41:14;9.20;99.90
31455;DHT22;18084;53.028;8.834;2023-04-03T16:43:40;9.20;99.90
31455;DHT22;18084;53.028;8.834;2023-04-03T16:46:05;8.90;99.90
31455;DHT22;18084;53.028;8.834;2023-04-03T16:48:31;8.70;99.90
31455;DHT22;18084;53.028;8.834;2023-04-03T16:51:03;8.70;1.00
31455;DHT22;18084;53.028;8.834;2023-04-03T16:53:29;8.60;1.00
31455;DHT22;18084;53.028;8.834;2023-04-03T16:55:58;8.30;1.00
31455;DHT22;18084;53.028;8.834;2023-04-03T16:58:24;8.20;1.00
31455;DHT22;18084;53.028;8.834;2023-04-03T17:00:50;8.10;1.00
31455;DHT22;18084;53.028;8.834;2023-04-03T17:03:15;8.10;1.00
31455;DHT22;18084;53.028;8.834;2023-04-03T17:05:41;8.30;1.00
31455;DHT22;18084;53.028;8.834;2023-04-03T17:08:06;8.40;18.10
31455;DHT22;18084;53.028;8.834;2023-04-03T17:10:32;8.40;1.00
31455;DHT22;18084;53.028;8.834;2023-04-03T17:12:58;8.40;1.00
31455;DHT22;18084;53.028;8.834;2023-04-03T17:15:24;8.20;35.80
31455;DHT22;18084;53.028;8.834;2023-04-03T17:17:53;8.00;10.50
31455;DHT22;18084;53.028;8.834;2023-04-03T17:20:19;7.90;20.00
31455;DHT22;18084;53.028;8.834;2023-04-03T17:22:45;7.80;65.30